sensor_id;sensor_type;location;lat;lon;timestamp;P1;durP1;ratioP1;P2;durP2;ratioP2
10114;SDS011;5097;43.260;27.812;2022-08-19T00:01:18;7.68;;;6.90;;
10114;SDS011;5097;43.260;27.812;2022-08-19T00:03:52;10.25;;;8.38;;
10114;SDS011;5097;43.260;27.812;2022-08-19T00:06:17;8.32;;;7.22;;
10114;SDS011;5097;43.260;27.812;2022-08-19T00:08:42;10.75;;;8.20;;
10114;SDS011;5097;43.260;27.812;2022-08-19T00:11:07;9.40;;;7.90;;
10114;SDS011;5097;43.260;27.812;2022-08-19T00:13:47;8.80;;;7.40;;
10114;SDS011;5097;43.260;27.812;2022-08-19T00:16:12;9.13;;;7.60;;
10114;SDS011;5097;43.260;27.812;2022-08-19T00:18:36;10.32;;;7.57;;
10114;SDS011;5097;43.260;27.812;2022-08-19T00:21:01;8.38;;;7.53;;
10114;SDS011;5097;43.260;27.812;2022-08-19T00:23:29;8.85;;;7.95;;
10114;SDS011;5097;43.260;27.812;2022-08-19T00:25:56;9.10;;;7.22;;
10114;SDS011;5097;43.260;27.812;2022-08-19T00:28:20;7.53;;;6.30;;
10114;SDS011;5097;43.260;27.812;2022-08-19T00:30:44;11.77;;;7.47;;
10114;SDS011;5097;43.260;27.812;2022-08-19T00:33:08;9.38;;;8.20;;
10114;SDS011;5097;43.260;27.812;2022-08-19T00:35:32;9.73;;;7.72;;
10114;SDS011;5097;43.260;27.812;2022-08-19T00:37:58;9.40;;;8.02;;
10114;SDS011;5097;43.260;27.812;2022-08-19T00:40:22;10.68;;;8.05;;
10114;SDS011;5097;43.260;27.812;2022-08-19T00:42:47;8.00;;;7.30;;
10114;SDS011;5097;43.260;27.812;2022-08-19T00:45:12;8.60;;;7.32;;
10114;SDS011;5097;43.260;27.812;2022-08-19T00:47:39;9.88;;;7.22;;
10114;SDS011;5097;43.260;27.812;2022-08-19T00:50:04;9.85;;;7.25;;
10114;SDS011;5097;43.260;27.812;2022-08-19T00:52:30;9.48;;;8.10;;
10114;SDS011;5097;43.260;27.812;2022-08-19T00:54:58;9.10;;;7.50;;
10114;SDS011;5097;43.260;27.812;2022-08-19T00:57:26;11.63;;;7.75;;
10114;SDS011;5097;43.260;27.812;2022-08-19T00:59:54;7.45;;;6.65;;
10114;SDS011;5097;43.260;27.812;2022-08-19T01:02:27;8.50;;;7.50;;
10114;SDS011;5097;43.260;27.812;2022-08-19T01:04:53;10.35;;;7.55;;
10114;SDS011;5097;43.260;27.812;2022-08-19T01:07:18;8.77;;;7.88;;
10114;SDS011;5097;43.260;27.812;2022-08-19T01:09:42;8.07;;;7.28;;
10114;SDS011;5097;43.260;27.812;2022-08-19T01:12:08;12.32;;;7.97;;
10114;SDS011;5097;43.260;27.812;2022-08-19T01:14:32;11.98;;;7.88;;
10114;SDS011;5097;43.260;27.812;2022-08-19T01:16:57;7.75;;;6.95;;
10114;SDS011;5097;43.260;27.812;2022-08-19T01:19:23;8.40;;;7.50;;
10114;SDS011;5097;43.260;27.812;2022-08-19T01:22:06;10.13;;;8.25;;
10114;SDS011;5097;43.260;27.812;2022-08-19T01:24:39;9.73;;;7.90;;
10114;SDS011;5097;43.260;27.812;2022-08-19T01:27:11;8.18;;;7.30;;
10114;SDS011;5097;43.260;27.812;2022-08-19T01:29:37;12.23;;;8.60;;
10114;SDS011;5097;43.260;27.812;2022-08-19T01:32:04;8.65;;;7.82;;
10114;SDS011;5097;43.260;27.812;2022-08-19T01:34:49;10.32;;;7.82;;
10114;SDS011;5097;43.260;27.812;2022-08-19T01:37:15;11.65;;;7.78;;
10114;SDS011;5097;43.260;27.812;2022-08-19T01:39:50;8.32;;;7.53;;
10114;SDS011;5097;43.260;27.812;2022-08-19T01:42:14;9.63;;;7.50;;
10114;SDS011;5097;43.260;27.812;2022-08-19T01:44:38;10.18;;;8.23;;
10114;SDS011;5097;43.260;27.812;2022-08-19T01:47:03;10.02;;;7.72;;
10114;SDS011;5097;43.260;27.812;2022-08-19T01:49:28;8.43;;;7.53;;
10114;SDS011;5097;43.260;27.812;2022-08-19T01:51:52;9.43;;;8.45;;
10114;SDS011;5097;43.260;27.812;2022-08-19T01:54:18;13.23;;;8.10;;
10114;SDS011;5097;43.260;27.812;2022-08-19T01:56:50;8.02;;;7.22;;
10114;SDS011;5097;43.260;27.812;2022-08-19T01:59:16;10.30;;;8.07;;
10114;SDS011;5097;43.260;27.812;2022-08-19T02:01:42;8.20;;;7.38;;
10114;SDS011;5097;43.260;27.812;2022-08-19T02:04:07;9.18;;;7.47;;
10114;SDS011;5097;43.260;27.812;2022-08-19T02:06:31;9.73;;;7.72;;
10114;SDS011;5097;43.260;27.812;2022-08-19T02:08:56;8.30;;;7.50;;
10114;SDS011;5097;43.260;27.812;2022-08-19T02:11:21;11.00;;;7.57;;
10114;SDS011;5097;43.260;27.812;2022-08-19T02:13:48;8.75;;;7.72;;
10114;SDS011;5097;43.260;27.812;2022-08-19T02:16:12;8.57;;;7.68;;
10114;SDS011;5097;43.260;27.812;2022-08-19T02:18:36;8.90;;;7.10;;
10114;SDS011;5097;43.260;27.812;2022-08-19T02:21:21;8.40;;;7.60;;
10114;SDS011;5097;43.260;27.812;2022-08-19T02:23:46;8.20;;;7.07;;
10114;SDS011;5097;43.260;27.812;2022-08-19T02:26:11;7.85;;;7.05;;
10114;SDS011;5097;43.260;27.812;2022-08-19T02:28:36;10.82;;;7.88;;
10114;SDS011;5097;43.260;27.812;2022-08-19T02:31:08;8.63;;;7.30;;
10114;SDS011;5097;43.260;27.812;2022-08-19T02:33:33;8.48;;;7.57;;
10114;SDS011;5097;43.260;27.812;2022-08-19T02:35:58;8.82;;;8.00;;
10114;SDS011;5097;43.260;27.812;2022-08-19T02:38:22;8.05;;;7.30;;
10114;SDS011;5097;43.260;27.812;2022-08-19T02:40:48;8.82;;;7.68;;
10114;SDS011;5097;43.260;27.812;2022-08-19T02:43:14;9.18;;;7.63;;
10114;SDS011;5097;43.260;27.812;2022-08-19T02:45:38;8.57;;;7.72;;
10114;SDS011;5097;43.260;27.812;2022-08-19T02:48:05;9.50;;;7.57;;
10114;SDS011;5097;43.260;27.812;2022-08-19T02:50:43;8.32;;;7.25;;
10114;SDS011;5097;43.260;27.812;2022-08-19T02:53:14;8.48;;;7.45;;
10114;SDS011;5097;43.260;27.812;2022-08-19T02:55:42;8.55;;;7.72;;
10114;SDS011;5097;43.260;27.812;2022-08-19T02:58:08;8.18;;;7.38;;
10114;SDS011;5097;43.260;27.812;2022-08-19T03:00:32;8.98;;;8.07;;
10114;SDS011;5097;43.260;27.812;2022-08-19T03:03:04;8.18;;;7.38;;
10114;SDS011;5097;43.260;27.812;2022-08-19T03:05:28;8.18;;;7.40;;
10114;SDS011;5097;43.260;27.812;2022-08-19T03:08:12;8.63;;;7.80;;
10114;SDS011;5097;43.260;27.812;2022-08-19T03:10:41;10.10;;;7.47;;
10114;SDS011;5097;43.260;27.812;2022-08-19T03:13:07;9.38;;;8.48;;
10114;SDS011;5097;43.260;27.812;2022-08-19T03:15:31;9.02;;;8.07;;
10114;SDS011;5097;43.260;27.812;2022-08-19T03:17:55;9.25;;;7.93;;
10114;SDS011;5097;43.260;27.812;2022-08-19T03:20:21;9.32;;;7.20;;
10114;SDS011;5097;43.260;27.812;2022-08-19T03:22:45;8.88;;;8.05;;
10114;SDS011;5097;43.260;27.812;2022-08-19T03:25:09;12.38;;;8.02;;
10114;SDS011;5097;43.260;27.812;2022-08-19T03:27:34;9.38;;;7.32;;
10114;SDS011;5097;43.260;27.812;2022-08-19T03:29:58;8.55;;;7.65;;
10114;SDS011;5097;43.260;27.812;2022-08-19T03:32:24;8.07;;;7.35;;
10114;SDS011;5097;43.260;27.812;2022-08-19T03:34:54;8.68;;;7.85;;
10114;SDS011;5097;43.260;27.812;2022-08-19T03:37:21;9.45;;;7.20;;
10114;SDS011;5097;43.260;27.812;2022-08-19T03:39:45;8.75;;;7.68;;
10114;SDS011;5097;43.260;27.812;2022-08-19T03:42:09;8.07;;;7.25;;
10114;SDS011;5097;43.260;27.812;2022-08-19T03:44:55;8.80;;;8.00;;
10114;SDS011;5097;43.260;27.812;2022-08-19T03:47:20;8.15;;;7.35;;
10114;SDS011;5097;43.260;27.812;2022-08-19T03:49:44;10.05;;;7.60;;
10114;SDS011;5097;43.260;27.812;2022-08-19T03:52:08;8.82;;;7.57;;
10114;SDS011;5097;43.260;27.812;2022-08-19T03:54:34;8.70;;;7.90;;
10114;SDS011;5097;43.260;27.812;2022-08-19T03:57:00;10.73;;;8.15;;
10114;SDS011;5097;43.260;27.812;2022-08-19T03:59:26;8.30;;;7.43;;
10114;SDS011;5097;43.260;27.812;2022-08-19T04:01:52;9.93;;;8.63;;
10114;SDS011;5097;43.260;27.812;2022-08-19T04:04:17;9.43;;;8.43;;
10114;SDS011;5097;43.260;27.812;2022-08-19T04:06:42;8.45;;;7.65;;
10114;SDS011;5097;43.260;27.812;2022-08-19T04:09:08;8.43;;;7.55;;
10114;SDS011;5097;43.260;27.812;2022-08-19T04:11:36;9.77;;;7.45;;
10114;SDS011;5097;43.260;27.812;2022-08-19T04:14:06;8.70;;;7.85;;
10114;SDS011;5097;43.260;27.812;2022-08-19T04:16:30;7.60;;;6.93;;
10114;SDS011;5097;43.260;27.812;2022-08-19T04:18:58;9.43;;;8.43;;
10114;SDS011;5097;43.260;27.812;2022-08-19T04:21:24;9.13;;;7.38;;
10114;SDS011;5097;43.260;27.812;2022-08-19T04:23:49;9.18;;;7.28;;
10114;SDS011;5097;43.260;27.812;2022-08-19T04:26:18;11.68;;;7.85;;
10114;SDS011;5097;43.260;27.812;2022-08-19T04:28:45;12.07;;;8.70;;
10114;SDS011;5097;43.260;27.812;2022-08-19T04:31:12;7.70;;;7.05;;
10114;SDS011;5097;43.260;27.812;2022-08-19T04:33:38;7.93;;;7.18;;
10114;SDS011;5097;43.260;27.812;2022-08-19T04:36:02;7.25;;;6.55;;
10114;SDS011;5097;43.260;27.812;2022-08-19T04:38:26;8.57;;;7.25;;
10114;SDS011;5097;43.260;27.812;2022-08-19T04:40:51;8.27;;;7.47;;
10114;SDS011;5097;43.260;27.812;2022-08-19T04:43:33;7.15;;;6.45;;
10114;SDS011;5097;43.260;27.812;2022-08-19T04:45:59;9.20;;;7.47;;
10114;SDS011;5097;43.260;27.812;2022-08-19T04:48:28;9.18;;;7.00;;
10114;SDS011;5097;43.260;27.812;2022-08-19T04:50:58;9.77;;;7.03;;
10114;SDS011;5097;43.260;27.812;2022-08-19T04:53:22;11.35;;;7.40;;
10114;SDS011;5097;43.260;27.812;2022-08-19T04:55:46;7.50;;;6.28;;
10114;SDS011;5097;43.260;27.812;2022-08-19T04:58:10;7.40;;;6.60;;
10114;SDS011;5097;43.260;27.812;2022-08-19T05:00:37;9.85;;;6.30;;
10114;SDS011;5097;43.260;27.812;2022-08-19T05:03:03;9.00;;;7.50;;
10114;SDS011;5097;43.260;27.812;2022-08-19T05:05:29;11.30;;;7.55;;
10114;SDS011;5097;43.260;27.812;2022-08-19T05:08:06;9.50;;;7.10;;
10114;SDS011;5097;43.260;27.812;2022-08-19T05:10:34;7.80;;;6.97;;
10114;SDS011;5097;43.260;27.812;2022-08-19T05:12:58;9.23;;;7.03;;
10114;SDS011;5097;43.260;27.812;2022-08-19T05:15:22;6.85;;;6.15;;
10114;SDS011;5097;43.260;27.812;2022-08-19T05:17:47;8.52;;;7.63;;
10114;SDS011;5097;43.260;27.812;2022-08-19T05:20:26;8.48;;;7.22;;
10114;SDS011;5097;43.260;27.812;2022-08-19T05:23:16;9.02;;;7.30;;
10114;SDS011;5097;43.260;27.812;2022-08-19T05:25:45;10.35;;;7.00;;
10114;SDS011;5097;43.260;27.812;2022-08-19T05:28:09;8.80;;;7.38;;
10114;SDS011;5097;43.260;27.812;2022-08-19T05:30:33;10.13;;;7.20;;
10114;SDS011;5097;43.260;27.812;2022-08-19T05:33:08;7.65;;;6.45;;
10114;SDS011;5097;43.260;27.812;2022-08-19T05:35:36;8.38;;;7.30;;
10114;SDS011;5097;43.260;27.812;2022-08-19T05:38:02;8.25;;;7.32;;
10114;SDS011;5097;43.260;27.812;2022-08-19T05:40:26;9.02;;;6.72;;
10114;SDS011;5097;43.260;27.812;2022-08-19T05:42:51;8.25;;;7.40;;
10114;SDS011;5097;43.260;27.812;2022-08-19T05:45:16;7.80;;;6.97;;
10114;SDS011;5097;43.260;27.812;2022-08-19T05:47:40;8.02;;;7.22;;
10114;SDS011;5097;43.260;27.812;2022-08-19T05:50:05;8.13;;;7.03;;
10114;SDS011;5097;43.260;27.812;2022-08-19T05:52:31;7.93;;;7.13;;
10114;SDS011;5097;43.260;27.812;2022-08-19T05:54:55;7.85;;;7.05;;
10114;SDS011;5097;43.260;27.812;2022-08-19T05:57:19;7.35;;;6.15;;
10114;SDS011;5097;43.260;27.812;2022-08-19T05:59:43;8.13;;;7.43;;
10114;SDS011;5097;43.260;27.812;2022-08-19T06:02:15;7.88;;;6.53;;
10114;SDS011;5097;43.260;27.812;2022-08-19T06:04:39;7.85;;;7.05;;
10114;SDS011;5097;43.260;27.812;2022-08-19T06:07:05;9.00;;;8.05;;
10114;SDS011;5097;43.260;27.812;2022-08-19T06:09:35;8.82;;;6.97;;
10114;SDS011;5097;43.260;27.812;2022-08-19T06:12:00;8.55;;;7.43;;
10114;SDS011;5097;43.260;27.812;2022-08-19T06:14:26;10.27;;;9.15;;
10114;SDS011;5097;43.260;27.812;2022-08-19T06:16:51;10.32;;;6.80;;
10114;SDS011;5097;43.260;27.812;2022-08-19T06:19:16;7.88;;;7.07;;
10114;SDS011;5097;43.260;27.812;2022-08-19T06:21:42;7.38;;;6.68;;
10114;SDS011;5097;43.260;27.812;2022-08-19T06:24:09;7.72;;;7.03;;
10114;SDS011;5097;43.260;27.812;2022-08-19T06:26:38;8.10;;;7.10;;
10114;SDS011;5097;43.260;27.812;2022-08-19T06:29:04;9.18;;;6.97;;
10114;SDS011;5097;43.260;27.812;2022-08-19T06:31:29;7.18;;;6.55;;
10114;SDS011;5097;43.260;27.812;2022-08-19T06:33:56;9.88;;;7.35;;
10114;SDS011;5097;43.260;27.812;2022-08-19T06:36:21;8.18;;;6.68;;
10114;SDS011;5097;43.260;27.812;2022-08-19T06:38:49;8.07;;;6.85;;
10114;SDS011;5097;43.260;27.812;2022-08-19T06:41:13;7.28;;;6.55;;
10114;SDS011;5097;43.260;27.812;2022-08-19T06:43:39;7.18;;;6.50;;
10114;SDS011;5097;43.260;27.812;2022-08-19T06:46:08;6.75;;;6.00;;
10114;SDS011;5097;43.260;27.812;2022-08-19T06:48:36;7.40;;;6.70;;
10114;SDS011;5097;43.260;27.812;2022-08-19T06:51:07;8.32;;;6.85;;
10114;SDS011;5097;43.260;27.812;2022-08-19T06:53:32;9.48;;;7.20;;
10114;SDS011;5097;43.260;27.812;2022-08-19T06:55:57;9.52;;;7.07;;
10114;SDS011;5097;43.260;27.812;2022-08-19T06:58:25;7.30;;;6.60;;
10114;SDS011;5097;43.260;27.812;2022-08-19T07:00:54;7.55;;;6.72;;
10114;SDS011;5097;43.260;27.812;2022-08-19T07:03:20;9.48;;;7.28;;
10114;SDS011;5097;43.260;27.812;2022-08-19T07:05:44;6.75;;;6.18;;
10114;SDS011;5097;43.260;27.812;2022-08-19T07:08:08;12.35;;;6.60;;
10114;SDS011;5097;43.260;27.812;2022-08-19T07:10:34;11.15;;;7.00;;
10114;SDS011;5097;43.260;27.812;2022-08-19T07:13:04;7.65;;;5.78;;
10114;SDS011;5097;43.260;27.812;2022-08-19T07:15:28;6.72;;;6.13;;
10114;SDS011;5097;43.260;27.812;2022-08-19T07:17:54;6.25;;;5.65;;
10114;SDS011;5097;43.260;27.812;2022-08-19T07:20:18;17.33;;;7.97;;
10114;SDS011;5097;43.260;27.812;2022-08-19T07:22:49;7.68;;;5.75;;
10114;SDS011;5097;43.260;27.812;2022-08-19T07:25:15;7.97;;;6.38;;
10114;SDS011;5097;43.260;27.812;2022-08-19T07:27:40;9.50;;;6.45;;
10114;SDS011;5097;43.260;27.812;2022-08-19T07:30:10;5.85;;;5.35;;
10114;SDS011;5097;43.260;27.812;2022-08-19T07:32:35;8.38;;;6.53;;
10114;SDS011;5097;43.260;27.812;2022-08-19T07:35:01;9.00;;;6.18;;
10114;SDS011;5097;43.260;27.812;2022-08-19T07:37:25;6.78;;;5.78;;
10114;SDS011;5097;43.260;27.812;2022-08-19T07:39:54;7.35;;;5.95;;
10114;SDS011;5097;43.260;27.812;2022-08-19T07:42:18;6.47;;;5.63;;
10114;SDS011;5097;43.260;27.812;2022-08-19T07:44:43;5.97;;;5.38;;
10114;SDS011;5097;43.260;27.812;2022-08-19T07:47:12;6.88;;;5.75;;
10114;SDS011;5097;43.260;27.812;2022-08-19T07:49:58;6.10;;;5.53;;
10114;SDS011;5097;43.260;27.812;2022-08-19T07:52:25;8.30;;;5.93;;
10114;SDS011;5097;43.260;27.812;2022-08-19T07:54:50;5.63;;;5.15;;
10114;SDS011;5097;43.260;27.812;2022-08-19T07:57:14;7.03;;;5.90;;
10114;SDS011;5097;43.260;27.812;2022-08-19T07:59:39;6.72;;;6.10;;
10114;SDS011;5097;43.260;27.812;2022-08-19T08:02:03;7.43;;;5.32;;
10114;SDS011;5097;43.260;27.812;2022-08-19T08:04:28;8.30;;;5.97;;
10114;SDS011;5097;43.260;27.812;2022-08-19T08:07:10;7.68;;;6.15;;
10114;SDS011;5097;43.260;27.812;2022-08-19T08:09:54;9.48;;;5.88;;
10114;SDS011;5097;43.260;27.812;2022-08-19T08:12:19;6.03;;;5.10;;
10114;SDS011;5097;43.260;27.812;2022-08-19T08:14:56;6.80;;;5.47;;
10114;SDS011;5097;43.260;27.812;2022-08-19T08:17:26;8.45;;;6.47;;
10114;SDS011;5097;43.260;27.812;2022-08-19T08:20:11;6.03;;;4.93;;
10114;SDS011;5097;43.260;27.812;2022-08-19T08:22:36;6.95;;;5.85;;
10114;SDS011;5097;43.260;27.812;2022-08-19T08:25:20;7.40;;;5.50;;
10114;SDS011;5097;43.260;27.812;2022-08-19T08:27:46;5.65;;;5.15;;
10114;SDS011;5097;43.260;27.812;2022-08-19T08:30:15;6.68;;;6.07;;
10114;SDS011;5097;43.260;27.812;2022-08-19T08:32:41;5.55;;;5.00;;
10114;SDS011;5097;43.260;27.812;2022-08-19T08:35:07;9.57;;;6.05;;
10114;SDS011;5097;43.260;27.812;2022-08-19T08:37:33;5.85;;;4.88;;
10114;SDS011;5097;43.260;27.812;2022-08-19T08:39:58;6.00;;;5.25;;
10114;SDS011;5097;43.260;27.812;2022-08-19T08:42:27;7.25;;;6.00;;
10114;SDS011;5097;43.260;27.812;2022-08-19T08:44:57;6.03;;;5.00;;
10114;SDS011;5097;43.260;27.812;2022-08-19T08:47:25;10.70;;;5.03;;
10114;SDS011;5097;43.260;27.812;2022-08-19T08:49:55;5.95;;;5.28;;
10114;SDS011;5097;43.260;27.812;2022-08-19T08:52:25;8.55;;;5.05;;
10114;SDS011;5097;43.260;27.812;2022-08-19T08:54:55;6.50;;;5.07;;
10114;SDS011;5097;43.260;27.812;2022-08-19T08:57:35;8.50;;;5.35;;
10114;SDS011;5097;43.260;27.812;2022-08-19T09:00:05;6.13;;;5.50;;
10114;SDS011;5097;43.260;27.812;2022-08-19T09:02:37;6.22;;;5.72;;
10114;SDS011;5097;43.260;27.812;2022-08-19T09:05:05;5.97;;;5.00;;
10114;SDS011;5097;43.260;27.812;2022-08-19T09:07:40;6.00;;;5.47;;
10114;SDS011;5097;43.260;27.812;2022-08-19T09:10:15;6.43;;;5.70;;
10114;SDS011;5097;43.260;27.812;2022-08-19T09:12:51;5.65;;;5.25;;
10114;SDS011;5097;43.260;27.812;2022-08-19T09:15:32;6.50;;;5.32;;
10114;SDS011;5097;43.260;27.812;2022-08-19T09:18:01;8.50;;;5.43;;
10114;SDS011;5097;43.260;27.812;2022-08-19T09:20:29;5.72;;;5.22;;
10114;SDS011;5097;43.260;27.812;2022-08-19T09:22:54;8.27;;;5.93;;
10114;SDS011;5097;43.260;27.812;2022-08-19T09:25:19;7.15;;;4.88;;
10114;SDS011;5097;43.260;27.812;2022-08-19T09:27:50;5.55;;;5.05;;
10114;SDS011;5097;43.260;27.812;2022-08-19T09:30:19;8.27;;;4.53;;
10114;SDS011;5097;43.260;27.812;2022-08-19T09:32:45;5.72;;;4.78;;
10114;SDS011;5097;43.260;27.812;2022-08-19T09:35:14;7.30;;;5.43;;
10114;SDS011;5097;43.260;27.812;2022-08-19T09:37:38;5.30;;;4.80;;
10114;SDS011;5097;43.260;27.812;2022-08-19T09:40:13;6.10;;;5.55;;
10114;SDS011;5097;43.260;27.812;2022-08-19T09:42:38;7.25;;;5.00;;
10114;SDS011;5097;43.260;27.812;2022-08-19T09:45:15;6.10;;;5.32;;
10114;SDS011;5097;43.260;27.812;2022-08-19T09:47:43;7.07;;;5.20;;
10114;SDS011;5097;43.260;27.812;2022-08-19T09:50:09;6.97;;;5.55;;
10114;SDS011;5097;43.260;27.812;2022-08-19T09:52:38;8.93;;;6.07;;
10114;SDS011;5097;43.260;27.812;2022-08-19T09:55:17;5.30;;;4.80;;
10114;SDS011;5097;43.260;27.812;2022-08-19T09:57:41;5.82;;;5.00;;
10114;SDS011;5097;43.260;27.812;2022-08-19T10:00:06;7.30;;;4.85;;
10114;SDS011;5097;43.260;27.812;2022-08-19T10:02:33;7.28;;;4.38;;
10114;SDS011;5097;43.260;27.812;2022-08-19T10:04:58;4.70;;;4.28;;
10114;SDS011;5097;43.260;27.812;2022-08-19T10:07:48;7.63;;;5.13;;
10114;SDS011;5097;43.260;27.812;2022-08-19T10:10:12;5.60;;;4.85;;
10114;SDS011;5097;43.260;27.812;2022-08-19T10:12:37;5.50;;;5.00;;
10114;SDS011;5097;43.260;27.812;2022-08-19T10:15:02;8.65;;;4.85;;
10114;SDS011;5097;43.260;27.812;2022-08-19T10:17:28;6.40;;;4.90;;
10114;SDS011;5097;43.260;27.812;2022-08-19T10:19:56;6.55;;;5.18;;
10114;SDS011;5097;43.260;27.812;2022-08-19T10:22:20;5.82;;;4.93;;
10114;SDS011;5097;43.260;27.812;2022-08-19T10:24:47;5.68;;;4.22;;
10114;SDS011;5097;43.260;27.812;2022-08-19T10:27:13;4.60;;;4.20;;
10114;SDS011;5097;43.260;27.812;2022-08-19T10:29:37;6.07;;;4.32;;
10114;SDS011;5097;43.260;27.812;2022-08-19T10:32:08;5.53;;;4.68;;
10114;SDS011;5097;43.260;27.812;2022-08-19T10:34:32;6.28;;;4.40;;
10114;SDS011;5097;43.260;27.812;2022-08-19T10:37:11;7.30;;;5.28;;
10114;SDS011;5097;43.260;27.812;2022-08-19T10:39:38;6.10;;;4.93;;
10114;SDS011;5097;43.260;27.812;2022-08-19T10:42:05;4.90;;;4.38;;
10114;SDS011;5097;43.260;27.812;2022-08-19T10:44:33;4.82;;;4.10;;
10114;SDS011;5097;43.260;27.812;2022-08-19T10:46:58;5.07;;;4.57;;
10114;SDS011;5097;43.260;27.812;2022-08-19T10:49:22;8.27;;;5.07;;
10114;SDS011;5097;43.260;27.812;2022-08-19T10:51:47;9.10;;;4.85;;
10114;SDS011;5097;43.260;27.812;2022-08-19T10:54:33;5.60;;;5.10;;
10114;SDS011;5097;43.260;27.812;2022-08-19T10:57:15;9.13;;;4.93;;
10114;SDS011;5097;43.260;27.812;2022-08-19T10:59:39;5.28;;;4.68;;
10114;SDS011;5097;43.260;27.812;2022-08-19T11:02:04;5.95;;;4.30;;
10114;SDS011;5097;43.260;27.812;2022-08-19T11:04:32;5.65;;;5.13;;
10114;SDS011;5097;43.260;27.812;2022-08-19T11:06:57;6.03;;;4.68;;
10114;SDS011;5097;43.260;27.812;2022-08-19T11:09:22;6.80;;;4.75;;
10114;SDS011;5097;43.260;27.812;2022-08-19T11:11:56;5.28;;;4.78;;
10114;SDS011;5097;43.260;27.812;2022-08-19T11:14:23;6.72;;;4.65;;
10114;SDS011;5097;43.260;27.812;2022-08-19T11:16:51;5.45;;;4.95;;
10114;SDS011;5097;43.260;27.812;2022-08-19T11:19:18;7.47;;;4.55;;
10114;SDS011;5097;43.260;27.812;2022-08-19T11:21:43;6.07;;;4.97;;
10114;SDS011;5097;43.260;27.812;2022-08-19T11:24:13;7.65;;;4.10;;
10114;SDS011;5097;43.260;27.812;2022-08-19T11:26:40;7.55;;;4.53;;
10114;SDS011;5097;43.260;27.812;2022-08-19T11:29:07;6.53;;;4.18;;
10114;SDS011;5097;43.260;27.812;2022-08-19T11:31:35;7.05;;;4.80;;
10114;SDS011;5097;43.260;27.812;2022-08-19T11:34:02;6.93;;;4.15;;
10114;SDS011;5097;43.260;27.812;2022-08-19T11:36:29;6.25;;;5.03;;
10114;SDS011;5097;43.260;27.812;2022-08-19T11:38:54;6.32;;;4.32;;
10114;SDS011;5097;43.260;27.812;2022-08-19T11:41:19;6.13;;;4.18;;
10114;SDS011;5097;43.260;27.812;2022-08-19T11:43:45;7.22;;;4.10;;
10114;SDS011;5097;43.260;27.812;2022-08-19T11:46:12;4.45;;;3.80;;
10114;SDS011;5097;43.260;27.812;2022-08-19T11:48:38;4.40;;;4.00;;
10114;SDS011;5097;43.260;27.812;2022-08-19T11:51:03;3.80;;;3.58;;
10114;SDS011;5097;43.260;27.812;2022-08-19T11:53:29;5.10;;;4.13;;
10114;SDS011;5097;43.260;27.812;2022-08-19T11:55:54;5.13;;;3.83;;
10114;SDS011;5097;43.260;27.812;2022-08-19T11:58:19;5.28;;;4.20;;
10114;SDS011;5097;43.260;27.812;2022-08-19T12:00:43;6.13;;;4.40;;
10114;SDS011;5097;43.260;27.812;2022-08-19T12:03:08;9.65;;;5.00;;
10114;SDS011;5097;43.260;27.812;2022-08-19T12:05:32;7.78;;;6.97;;
10114;SDS011;5097;43.260;27.812;2022-08-19T12:07:57;8.60;;;6.47;;
10114;SDS011;5097;43.260;27.812;2022-08-19T12:10:21;7.05;;;6.18;;
10114;SDS011;5097;43.260;27.812;2022-08-19T12:12:47;7.63;;;6.53;;
10114;SDS011;5097;43.260;27.812;2022-08-19T12:15:20;7.10;;;6.50;;
10114;SDS011;5097;43.260;27.812;2022-08-19T12:17:44;8.07;;;6.72;;
10114;SDS011;5097;43.260;27.812;2022-08-19T12:20:10;7.60;;;6.20;;
10114;SDS011;5097;43.260;27.812;2022-08-19T12:22:40;7.00;;;6.25;;
10114;SDS011;5097;43.260;27.812;2022-08-19T12:25:05;7.20;;;6.50;;
10114;SDS011;5097;43.260;27.812;2022-08-19T12:27:31;7.63;;;6.43;;
10114;SDS011;5097;43.260;27.812;2022-08-19T12:30:03;8.43;;;6.32;;
10114;SDS011;5097;43.260;27.812;2022-08-19T12:32:28;7.93;;;7.20;;
10114;SDS011;5097;43.260;27.812;2022-08-19T12:34:52;8.18;;;7.32;;
10114;SDS011;5097;43.260;27.812;2022-08-19T12:37:18;7.65;;;6.80;;
10114;SDS011;5097;43.260;27.812;2022-08-19T12:39:43;8.48;;;6.75;;
10114;SDS011;5097;43.260;27.812;2022-08-19T12:42:07;9.88;;;6.72;;
10114;SDS011;5097;43.260;27.812;2022-08-19T12:44:32;7.28;;;6.57;;
10114;SDS011;5097;43.260;27.812;2022-08-19T12:46:57;7.05;;;6.40;;
10114;SDS011;5097;43.260;27.812;2022-08-19T12:49:22;7.47;;;6.40;;
10114;SDS011;5097;43.260;27.812;2022-08-19T12:52:08;7.07;;;6.45;;
10114;SDS011;5097;43.260;27.812;2022-08-19T12:54:37;9.48;;;7.03;;
10114;SDS011;5097;43.260;27.812;2022-08-19T12:57:04;12.23;;;7.20;;
10114;SDS011;5097;43.260;27.812;2022-08-19T12:59:30;10.90;;;7.13;;
10114;SDS011;5097;43.260;27.812;2022-08-19T13:01:54;9.27;;;6.40;;
10114;SDS011;5097;43.260;27.812;2022-08-19T13:04:18;6.47;;;5.85;;
10114;SDS011;5097;43.260;27.812;2022-08-19T13:06:42;6.97;;;6.13;;
10114;SDS011;5097;43.260;27.812;2022-08-19T13:09:06;7.32;;;6.63;;
10114;SDS011;5097;43.260;27.812;2022-08-19T13:11:32;7.25;;;6.65;;
10114;SDS011;5097;43.260;27.812;2022-08-19T13:13:56;10.60;;;7.03;;
10114;SDS011;5097;43.260;27.812;2022-08-19T13:16:20;7.50;;;6.70;;
10114;SDS011;5097;43.260;27.812;2022-08-19T13:18:45;7.38;;;5.90;;
10114;SDS011;5097;43.260;27.812;2022-08-19T13:21:10;9.43;;;6.60;;
10114;SDS011;5097;43.260;27.812;2022-08-19T13:23:35;7.10;;;6.40;;
10114;SDS011;5097;43.260;27.812;2022-08-19T13:26:00;6.90;;;5.60;;
10114;SDS011;5097;43.260;27.812;2022-08-19T13:28:28;7.65;;;6.85;;
10114;SDS011;5097;43.260;27.812;2022-08-19T13:31:14;6.55;;;5.95;;
10114;SDS011;5097;43.260;27.812;2022-08-19T13:33:57;6.90;;;6.22;;
10114;SDS011;5097;43.260;27.812;2022-08-19T13:36:21;6.13;;;5.53;;
10114;SDS011;5097;43.260;27.812;2022-08-19T13:38:45;9.63;;;6.75;;
10114;SDS011;5097;43.260;27.812;2022-08-19T13:41:09;6.78;;;6.18;;
10114;SDS011;5097;43.260;27.812;2022-08-19T13:43:37;7.38;;;6.28;;
10114;SDS011;5097;43.260;27.812;2022-08-19T13:46:07;6.40;;;5.80;;
10114;SDS011;5097;43.260;27.812;2022-08-19T13:48:32;6.47;;;5.93;;
10114;SDS011;5097;43.260;27.812;2022-08-19T13:50:56;9.07;;;6.20;;
10114;SDS011;5097;43.260;27.812;2022-08-19T13:53:21;7.10;;;6.40;;
10114;SDS011;5097;43.260;27.812;2022-08-19T13:55:45;10.95;;;6.10;;
10114;SDS011;5097;43.260;27.812;2022-08-19T13:58:10;12.90;;;6.25;;
10114;SDS011;5097;43.260;27.812;2022-08-19T14:00:36;6.18;;;5.57;;
10114;SDS011;5097;43.260;27.812;2022-08-19T14:03:02;8.75;;;5.70;;
10114;SDS011;5097;43.260;27.812;2022-08-19T14:05:30;9.38;;;6.47;;
10114;SDS011;5097;43.260;27.812;2022-08-19T14:07:55;7.10;;;6.32;;
10114;SDS011;5097;43.260;27.812;2022-08-19T14:10:20;8.38;;;6.28;;
10114;SDS011;5097;43.260;27.812;2022-08-19T14:12:45;6.60;;;5.55;;
10114;SDS011;5097;43.260;27.812;2022-08-19T14:15:10;9.85;;;6.25;;
10114;SDS011;5097;43.260;27.812;2022-08-19T14:17:38;6.70;;;6.00;;
10114;SDS011;5097;43.260;27.812;2022-08-19T14:20:04;7.50;;;5.93;;
10114;SDS011;5097;43.260;27.812;2022-08-19T14:22:32;9.80;;;6.28;;
10114;SDS011;5097;43.260;27.812;2022-08-19T14:24:57;10.32;;;5.90;;
10114;SDS011;5097;43.260;27.812;2022-08-19T14:27:21;8.23;;;5.82;;
10114;SDS011;5097;43.260;27.812;2022-08-19T14:29:48;6.15;;;5.53;;
10114;SDS011;5097;43.260;27.812;2022-08-19T14:32:12;7.35;;;5.63;;
10114;SDS011;5097;43.260;27.812;2022-08-19T14:34:39;7.78;;;5.65;;
10114;SDS011;5097;43.260;27.812;2022-08-19T14:37:03;8.93;;;5.50;;
10114;SDS011;5097;43.260;27.812;2022-08-19T14:39:28;10.25;;;5.57;;
10114;SDS011;5097;43.260;27.812;2022-08-19T14:41:52;5.78;;;5.32;;
10114;SDS011;5097;43.260;27.812;2022-08-19T14:44:16;6.28;;;5.78;;
10114;SDS011;5097;43.260;27.812;2022-08-19T14:46:40;11.27;;;5.90;;